createdAt,value
2023-01-11T00:00:16.233Z,1.10
2023-01-11T00:02:42.441Z,0.68
2023-01-11T00:05:09.450Z,1.00
2023-01-11T00:07:35.657Z,1.30
2023-01-11T00:10:04.604Z,0.80
2023-01-11T00:12:31.152Z,1.38
2023-01-11T00:14:57.359Z,0.63
2023-01-11T00:17:23.537Z,0.95
2023-01-11T00:19:49.818Z,0.98
2023-01-11T00:22:16.053Z,1.15
2023-01-11T00:24:42.259Z,1.20
2023-01-11T00:27:08.480Z,1.08
2023-01-11T00:29:34.730Z,1.00
2023-01-11T00:32:00.945Z,1.08
2023-01-11T00:34:27.200Z,0.70
2023-01-11T00:36:53.391Z,0.75
2023-01-11T00:39:19.613Z,0.98
2023-01-11T00:42:04.577Z,0.60
2023-01-11T00:44:49.323Z,0.60
2023-01-11T00:47:34.929Z,1.23
2023-01-11T00:50:01.531Z,0.70
2023-01-11T00:52:27.905Z,0.88
2023-01-11T00:54:54.169Z,0.85
2023-01-11T00:57:20.428Z,0.63
2023-01-11T00:59:46.744Z,1.20
2023-01-11T01:02:13.143Z,0.65
2023-01-11T01:04:39.557Z,0.95
2023-01-11T01:07:05.836Z,0.80
2023-01-11T01:09:32.450Z,0.93
2023-01-11T01:11:59.152Z,1.65
2023-01-11T01:14:29.260Z,1.10
2023-01-11T01:16:56.968Z,0.77
2023-01-11T01:19:23.660Z,0.50
2023-01-11T01:21:50.357Z,0.52
2023-01-11T01:24:16.858Z,0.73
2023-01-11T01:26:43.096Z,0.50
2023-01-11T01:29:09.308Z,0.60
2023-01-11T01:31:35.658Z,0.60
2023-01-11T01:34:01.977Z,0.50
2023-01-11T01:36:28.178Z,1.75
2023-01-11T01:38:54.364Z,0.52
2023-01-11T01:41:20.597Z,0.77
2023-01-11T01:43:49.598Z,0.52
2023-01-11T01:46:16.639Z,0.60
2023-01-11T01:48:44.529Z,0.65
2023-01-11T01:51:12.034Z,0.50
2023-01-11T01:53:40.568Z,0.50
2023-01-11T01:56:09.664Z,0.63
2023-01-11T01:58:39.021Z,0.50
2023-01-11T02:01:24.279Z,0.60
2023-01-11T02:03:52.018Z,0.60
2023-01-11T02:06:19.595Z,0.50
2023-01-11T02:08:49.440Z,0.95
2023-01-11T02:11:31.414Z,0.75
2023-01-11T02:14:06.557Z,0.60
2023-01-11T02:16:33.330Z,0.73
2023-01-11T02:19:00.099Z,1.73
2023-01-11T02:21:26.462Z,0.75
2023-01-11T02:23:52.662Z,1.35
2023-01-11T02:26:28.143Z,0.77
2023-01-11T02:29:03.146Z,0.50
2023-01-11T02:31:33.300Z,2.13
2023-01-11T02:34:15.898Z,0.50
2023-01-11T02:36:44.329Z,0.50
2023-01-11T02:39:16.423Z,0.52
2023-01-11T02:42:09.386Z,0.75
2023-01-11T02:45:00.773Z,0.60
2023-01-11T02:47:37.208Z,0.60
2023-01-11T02:50:08.794Z,0.50
2023-01-11T02:55:02.563Z,0.73
2023-01-11T02:57:29.708Z,0.70
2023-01-11T02:59:57.931Z,0.57
2023-01-11T03:02:24.624Z,0.60
2023-01-11T03:04:50.825Z,0.50
2023-01-11T03:07:35.632Z,0.65
2023-01-11T03:10:07.507Z,0.60
2023-01-11T03:12:52.310Z,1.15
2023-01-11T03:15:46.734Z,0.70
2023-01-11T03:18:23.063Z,0.70
2023-01-11T03:20:52.799Z,0.50
2023-01-11T03:23:18.999Z,1.08
2023-01-11T03:25:48.246Z,0.70
2023-01-11T03:28:17.381Z,1.48
2023-01-11T03:30:49.818Z,1.48
2023-01-11T03:33:27.638Z,1.10
2023-01-11T03:36:00.358Z,1.00
2023-01-11T03:38:38.926Z,0.60
2023-01-11T03:41:07.546Z,2.92
2023-01-11T03:43:35.457Z,0.70
2023-01-11T03:46:07.307Z,1.00
2023-01-11T03:48:39.024Z,1.45
2023-01-11T03:51:08.592Z,0.98
2023-01-11T03:53:36.522Z,0.73
2023-01-11T03:56:05.679Z,0.80
2023-01-11T03:58:31.909Z,0.70
2023-01-11T04:00:59.287Z,1.33
2023-01-11T04:03:27.275Z,0.65
2023-01-11T04:05:55.323Z,1.00
2023-01-11T04:08:21.525Z,1.20
2023-01-11T04:10:47.794Z,0.60
2023-01-11T04:13:13.990Z,0.65
2023-01-11T04:15:40.215Z,1.27
2023-01-11T04:18:06.695Z,0.85
2023-01-11T04:20:33.807Z,1.58
2023-01-11T04:23:00.084Z,1.33
2023-01-11T04:25:26.375Z,0.70
2023-01-11T04:27:52.581Z,0.85
2023-01-11T04:30:18.867Z,0.98
2023-01-11T04:32:45.069Z,0.57
2023-01-11T04:35:11.276Z,0.60
2023-01-11T04:37:37.493Z,0.95
2023-01-11T04:40:04.087Z,1.55
2023-01-11T04:42:30.283Z,0.47
2023-01-11T04:44:56.505Z,0.57
2023-01-11T04:47:23.348Z,0.65
2023-01-11T04:49:49.836Z,1.23
2023-01-11T04:52:16.973Z,2.75
2023-01-11T04:54:43.264Z,7.28
2023-01-11T04:57:13.596Z,4.32
2023-01-11T04:59:39.906Z,3.33
2023-01-11T05:02:06.108Z,3.35
2023-01-11T05:04:32.454Z,1.23
2023-01-11T05:06:58.732Z,1.30
2023-01-11T05:09:25.019Z,1.13
2023-01-11T05:11:51.211Z,1.02
2023-01-11T05:14:17.475Z,0.75
2023-01-11T05:16:43.807Z,0.70
2023-01-11T05:19:11.005Z,0.60
2023-01-11T05:21:40.724Z,1.85
2023-01-11T05:24:08.709Z,1.13
2023-01-11T05:26:36.753Z,1.75
2023-01-11T05:29:07.521Z,0.65
2023-01-11T05:31:34.746Z,1.02
2023-01-11T05:34:00.984Z,3.20
2023-01-11T05:36:27.820Z,1.13
2023-01-11T05:38:54.925Z,0.60
2023-01-11T05:41:22.891Z,1.60
2023-01-11T05:44:08.412Z,1.95
2023-01-11T05:46:35.309Z,2.35
2023-01-11T05:49:01.989Z,2.17
2023-01-11T05:51:32.678Z,2.20
2023-01-11T05:53:59.318Z,1.83
2023-01-11T05:56:26.051Z,2.08
2023-01-11T05:58:52.523Z,3.30
2023-01-11T06:01:19.454Z,2.95
2023-01-11T06:03:46.126Z,3.58
2023-01-11T06:06:12.785Z,3.25
2023-01-11T06:08:39.115Z,2.67
2023-01-11T06:11:05.378Z,3.28
2023-01-11T06:13:33.711Z,3.67
2023-01-11T06:16:01.343Z,1.83
2023-01-11T06:18:31.864Z,4.03
2023-01-11T06:20:58.101Z,4.97
2023-01-11T06:23:24.770Z,1.92
2023-01-11T06:25:51.348Z,2.80
2023-01-11T06:28:17.621Z,3.58
2023-01-11T06:30:43.878Z,1.98
2023-01-11T06:33:10.090Z,2.92
2023-01-11T06:35:40.253Z,2.92
2023-01-11T06:38:07.508Z,2.00
2023-01-11T06:40:33.864Z,0.93
2023-01-11T06:43:00.058Z,3.40
2023-01-11T06:45:26.264Z,1.42
2023-01-11T06:47:52.450Z,2.92
2023-01-11T06:50:18.756Z,1.63
2023-01-11T06:52:52.085Z,1.60
2023-01-11T06:55:18.285Z,1.40
2023-01-11T06:57:44.557Z,1.58
2023-01-11T07:00:11.166Z,0.88
2023-01-11T07:02:37.676Z,1.40
2023-01-11T07:05:03.988Z,0.90
2023-01-11T07:07:30.220Z,0.70
2023-01-11T07:09:56.419Z,2.80
2023-01-11T07:12:22.592Z,2.53
2023-01-11T07:14:48.794Z,2.30
2023-01-11T07:17:15.031Z,2.78
2023-01-11T07:19:41.237Z,1.00
2023-01-11T07:22:07.545Z,1.27
2023-01-11T07:24:33.840Z,1.33
2023-01-11T07:27:01.751Z,1.17
2023-01-11T07:29:27.980Z,1.90
2023-01-11T07:31:54.487Z,1.20
2023-01-11T07:34:20.707Z,1.40
2023-01-11T07:36:46.891Z,2.33
2023-01-11T07:39:13.151Z,2.63
2023-01-11T07:41:58.124Z,2.63
2023-01-11T07:44:24.325Z,1.23
2023-01-11T07:46:50.788Z,1.27
2023-01-11T07:49:17.032Z,2.13
2023-01-11T07:51:43.233Z,2.53
2023-01-11T07:54:09.497Z,0.70
2023-01-11T07:56:35.717Z,1.83
2023-01-11T07:59:01.984Z,1.52
2023-01-11T08:01:28.277Z,2.25
2023-01-11T08:03:54.553Z,1.27
2023-01-11T08:06:20.766Z,2.63
2023-01-11T08:08:46.956Z,1.60
2023-01-11T08:11:31.792Z,1.00
2023-01-11T08:14:16.544Z,1.08
2023-01-11T08:16:42.749Z,1.15
2023-01-11T08:19:08.989Z,1.55
2023-01-11T08:21:35.321Z,2.03
2023-01-11T08:24:01.530Z,4.53
2023-01-11T08:26:27.739Z,1.38
2023-01-11T08:28:54.382Z,2.75
2023-01-11T08:31:21.313Z,1.85
2023-01-11T08:33:48.600Z,1.75
2023-01-11T08:36:14.792Z,2.20
2023-01-11T08:38:41.002Z,1.48
2023-01-11T08:41:10.609Z,2.53
2023-01-11T08:43:37.508Z,3.13
2023-01-11T08:46:03.947Z,2.10
2023-01-11T08:48:30.160Z,2.25
2023-01-11T08:50:56.404Z,1.23
2023-01-11T08:53:22.613Z,2.45
2023-01-11T08:55:49.507Z,2.10
2023-01-11T08:58:15.921Z,3.85
2023-01-11T09:00:42.291Z,1.75
2023-01-11T09:03:10.856Z,4.80
2023-01-11T09:05:37.425Z,3.53
2023-01-11T09:08:04.273Z,2.78
2023-01-11T09:10:30.546Z,1.90
2023-01-11T09:12:56.853Z,1.95
2023-01-11T09:15:23.678Z,4.80
2023-01-11T09:17:50.385Z,3.67
2023-01-11T09:20:16.972Z,1.50
2023-01-11T09:22:46.946Z,2.58
2023-01-11T09:25:13.350Z,5.30
2023-01-11T09:27:42.867Z,4.80
2023-01-11T09:30:09.492Z,4.78
2023-01-11T09:32:35.878Z,5.10
2023-01-11T09:35:03.489Z,5.30
2023-01-11T09:37:29.949Z,3.80
2023-01-11T09:39:57.929Z,7.30
2023-01-11T09:42:31.421Z,4.93
2023-01-11T09:45:02.529Z,6.68
2023-01-11T09:47:32.666Z,7.28
2023-01-11T09:50:01.424Z,6.70
2023-01-11T09:52:36.075Z,9.13
2023-01-11T09:55:02.531Z,7.97
2023-01-11T09:57:47.720Z,12.90
2023-01-11T10:00:30.193Z,9.95
2023-01-11T10:02:59.840Z,9.82
2023-01-11T10:05:36.291Z,5.75
2023-01-11T10:18:29.448Z,10.13
2023-01-11T10:18:35.341Z,17.00
2023-01-11T10:20:12.333Z,13.25
2023-01-11T10:22:43.034Z,13.13
2023-01-11T10:25:14.576Z,12.43
2023-01-11T10:30:37.287Z,14.05
2023-01-11T10:33:30.958Z,13.73
2023-01-11T10:36:18.429Z,13.25
2023-01-11T10:38:57.366Z,14.35
2023-01-11T10:41:34.046Z,17.25
2023-01-11T10:44:09.873Z,14.57
2023-01-11T10:46:39.584Z,14.18
2023-01-11T10:49:25.767Z,11.68
2023-01-11T10:51:53.058Z,11.63
2023-01-11T10:54:23.011Z,13.63
2023-01-11T10:57:03.569Z,16.80
2023-01-11T10:59:43.592Z,14.95
2023-01-11T11:02:26.216Z,16.45
2023-01-11T11:05:11.593Z,14.10
2023-01-11T11:07:41.314Z,15.07
2023-01-11T11:10:14.704Z,9.90
2023-01-11T11:12:49.582Z,16.60
2023-01-11T11:15:42.105Z,15.15
2023-01-11T11:18:09.124Z,13.55
2023-01-11T11:20:35.591Z,11.90
2023-01-11T11:23:02.055Z,9.13
2023-01-11T11:25:32.901Z,13.73
2023-01-11T11:28:02.169Z,12.60
2023-01-11T11:30:48.664Z,13.02
2023-01-11T11:33:24.079Z,14.27
2023-01-11T11:35:57.509Z,10.25
2023-01-11T11:38:24.858Z,11.98
2023-01-11T11:40:59.124Z,11.23
2023-01-11T11:43:26.812Z,16.08
2023-01-11T11:45:54.502Z,16.65
2023-01-11T11:48:21.229Z,14.65
2023-01-11T11:50:48.061Z,14.38
2023-01-11T11:53:26.350Z,11.07
2023-01-11T11:55:53.062Z,16.63
2023-01-11T11:58:20.833Z,14.73
2023-01-11T12:00:48.481Z,9.93
2023-01-11T12:03:19.305Z,17.35
2023-01-11T12:06:02.722Z,15.93
2023-01-11T12:08:30.864Z,13.52
2023-01-11T12:11:05.287Z,15.43
2023-01-11T12:13:36.009Z,12.38
2023-01-11T12:16:04.092Z,22.90
2023-01-11T12:18:33.144Z,11.65
2023-01-11T12:21:30.243Z,14.35
2023-01-11T12:24:05.394Z,13.98
2023-01-11T12:26:36.686Z,16.25
2023-01-11T12:29:18.319Z,15.10
2023-01-11T12:32:03.993Z,12.27
2023-01-11T12:34:37.314Z,10.05
2023-01-11T12:37:12.954Z,13.15
2023-01-11T12:39:48.089Z,9.20
2023-01-11T12:42:29.165Z,16.27
2023-01-11T12:45:08.071Z,10.70
2023-01-11T12:47:52.895Z,12.65
2023-01-11T12:50:28.100Z,15.52
2023-01-11T12:53:02.335Z,13.07
2023-01-11T12:55:47.315Z,8.45
2023-01-11T12:58:17.793Z,13.93
2023-01-11T13:00:43.995Z,13.80
2023-01-11T13:03:29.468Z,7.80
2023-01-11T13:06:00.447Z,13.07
2023-01-11T13:08:40.649Z,14.75
2023-01-11T13:11:35.012Z,10.05
2023-01-11T13:14:10.556Z,11.85
2023-01-11T13:16:41.641Z,11.15
2023-01-11T13:19:14.897Z,10.00
2023-01-11T13:21:44.348Z,11.77
2023-01-11T13:24:12.263Z,7.63
2023-01-11T13:26:39.925Z,16.13
2023-01-11T13:29:06.221Z,12.60
2023-01-11T13:31:34.431Z,11.65
2023-01-11T13:34:03.969Z,10.27
2023-01-11T13:36:33.076Z,9.73
2023-01-11T13:39:16.287Z,12.73
2023-01-11T13:41:48.247Z,10.70
2023-01-11T13:44:37.084Z,10.02
2023-01-11T13:47:19.112Z,10.73
2023-01-11T13:50:00.901Z,9.48
2023-01-11T13:52:45.932Z,8.05
2023-01-11T13:55:25.114Z,10.13
2023-01-11T13:57:58.240Z,8.05
2023-01-11T14:00:24.506Z,9.18
2023-01-11T14:02:54.810Z,11.73
2023-01-11T14:05:21.893Z,10.15
2023-01-11T14:08:00.485Z,12.32
2023-01-11T14:10:33.093Z,10.73
2023-01-11T14:13:05.555Z,8.23
2023-01-11T14:15:40.931Z,12.95
2023-01-11T14:18:27.320Z,11.52
2023-01-11T14:20:56.262Z,19.85
2023-01-11T14:23:28.320Z,14.52
2023-01-11T14:26:13.167Z,8.68
2023-01-11T14:28:57.607Z,15.70
2023-01-11T14:31:42.499Z,12.43
2023-01-11T14:34:21.959Z,15.02
2023-01-11T14:36:50.977Z,17.38
2023-01-11T14:39:43.263Z,12.82
2023-01-11T14:42:35.991Z,16.60
2023-01-11T14:45:13.393Z,10.02
2023-01-11T14:47:48.743Z,14.00
2023-01-11T14:50:17.743Z,15.52
2023-01-11T14:52:44.540Z,10.90
2023-01-11T14:55:27.803Z,18.77
2023-01-11T14:57:56.825Z,18.33
2023-01-11T15:00:22.987Z,15.18
2023-01-11T15:02:52.938Z,10.38
2023-01-11T15:05:45.258Z,13.73
2023-01-11T15:08:14.535Z,12.68
2023-01-11T15:10:51.541Z,15.25
2023-01-11T15:13:40.838Z,13.02
2023-01-11T15:16:38.128Z,15.38
2023-01-11T15:19:06.179Z,15.90
2023-01-11T15:21:40.736Z,17.33
2023-01-11T15:24:19.353Z,11.05
2023-01-11T15:26:49.620Z,11.75
2023-01-11T15:29:20.901Z,18.67
2023-01-11T15:31:53.466Z,14.63
2023-01-11T15:34:40.608Z,13.95
2023-01-11T15:37:17.593Z,13.35
2023-01-11T15:40:02.734Z,12.13
2023-01-11T15:42:47.350Z,12.40
2023-01-11T15:45:13.574Z,11.95
2023-01-11T15:47:54.801Z,9.68
2023-01-11T15:50:43.658Z,16.13
2023-01-11T15:53:12.954Z,10.40
2023-01-11T15:55:57.728Z,17.33
2023-01-11T15:58:42.926Z,16.80
2023-01-11T16:01:20.806Z,16.20
2023-01-11T16:03:49.532Z,20.13
2023-01-11T16:06:15.967Z,12.52
2023-01-11T16:08:50.091Z,18.60
2023-01-11T16:11:21.323Z,10.80
2023-01-11T16:13:59.731Z,10.63
2023-01-11T16:16:31.922Z,16.27
2023-01-11T16:19:06.777Z,15.35
2023-01-11T16:21:37.062Z,17.63
2023-01-11T16:24:07.752Z,14.25
2023-01-11T16:26:35.149Z,13.93
2023-01-11T16:29:03.375Z,9.50
2023-01-11T16:31:49.573Z,15.95
2023-01-11T16:34:17.660Z,15.48
2023-01-11T16:36:48.771Z,11.07
2023-01-11T16:39:22.815Z,14.90
2023-01-11T16:41:55.443Z,12.57
2023-01-11T16:44:25.642Z,18.25
2023-01-11T16:47:04.000Z,12.73
2023-01-11T16:49:30.276Z,9.52
2023-01-11T16:51:57.643Z,16.25
2023-01-11T16:54:26.266Z,8.82
2023-01-11T16:56:53.133Z,14.52
2023-01-11T16:59:26.346Z,11.27
2023-01-11T17:01:54.024Z,14.85
2023-01-11T17:04:26.023Z,12.27
2023-01-11T17:06:52.225Z,14.13
2023-01-11T17:09:21.867Z,15.52
2023-01-11T17:11:50.229Z,11.85
2023-01-11T17:14:34.993Z,11.25
2023-01-11T17:17:02.995Z,10.68
2023-01-11T17:19:30.697Z,9.98
2023-01-11T17:22:02.278Z,11.63
2023-01-11T17:26:56.504Z,11.43
2023-01-11T17:29:33.522Z,9.20
2023-01-11T17:32:00.985Z,9.70
2023-01-11T17:34:34.891Z,9.85
2023-01-11T17:37:02.325Z,9.68
2023-01-11T17:39:33.385Z,8.07
2023-01-11T17:42:21.190Z,10.05
2023-01-11T17:45:07.452Z,9.13
2023-01-11T17:47:34.400Z,9.30
2023-01-11T17:50:02.398Z,10.55
2023-01-11T17:52:38.953Z,6.70
2023-01-11T17:55:14.013Z,14.57
2023-01-11T17:57:40.508Z,7.30
2023-01-11T18:00:24.782Z,13.77
2023-01-11T18:02:51.101Z,8.75
2023-01-11T18:05:18.476Z,9.80
2023-01-11T18:07:50.308Z,8.55
2023-01-11T18:10:21.063Z,7.50
2023-01-11T18:12:47.901Z,8.43
2023-01-11T18:15:19.193Z,9.25
2023-01-11T18:17:45.453Z,8.05
2023-01-11T18:20:14.811Z,9.48
2023-01-11T18:22:42.047Z,7.50
2023-01-11T18:25:18.799Z,9.73
2023-01-11T18:27:46.646Z,9.65
2023-01-11T18:30:31.384Z,10.30
2023-01-11T18:33:01.989Z,9.95
2023-01-11T18:35:28.792Z,11.98
2023-01-11T18:37:54.998Z,7.68
2023-01-11T18:40:21.558Z,10.75
2023-01-11T18:42:51.862Z,10.63
2023-01-11T18:45:18.168Z,6.75
2023-01-11T18:47:44.407Z,9.93
2023-01-11T18:50:12.351Z,6.93
2023-01-11T18:52:38.591Z,14.57
2023-01-11T18:55:05.527Z,10.82
2023-01-11T18:57:32.146Z,10.77
2023-01-11T18:59:58.434Z,11.95
2023-01-11T19:02:26.463Z,8.48
2023-01-11T19:04:54.198Z,11.18
2023-01-11T19:07:20.928Z,7.22
2023-01-11T19:09:47.599Z,11.27
2023-01-11T19:12:14.387Z,11.18
2023-01-11T19:14:40.713Z,10.48
2023-01-11T19:17:10.622Z,9.70
2023-01-11T19:19:36.998Z,10.40
2023-01-11T19:22:03.926Z,10.13
2023-01-11T19:24:30.252Z,13.18
2023-01-11T19:26:56.603Z,7.05
2023-01-11T19:29:24.615Z,22.42
2023-01-11T19:31:52.123Z,8.35
2023-01-11T19:34:18.751Z,9.82
2023-01-11T19:36:45.516Z,13.82
2023-01-11T19:39:11.911Z,7.10
2023-01-11T19:41:56.893Z,13.40
2023-01-11T19:44:30.236Z,12.73
2023-01-11T19:47:10.386Z,8.07
2023-01-11T19:49:37.460Z,11.32
2023-01-11T19:52:03.877Z,12.60
2023-01-11T19:54:30.117Z,11.32
2023-01-11T19:56:56.518Z,12.80
2023-01-11T19:59:22.951Z,12.85
2023-01-11T20:01:49.221Z,17.08
2023-01-11T20:04:16.286Z,14.30
2023-01-11T20:06:50.221Z,12.63
2023-01-11T20:09:17.585Z,11.75
2023-01-11T20:11:44.291Z,13.38
2023-01-11T20:14:10.597Z,9.30
2023-01-11T20:16:36.809Z,11.90
2023-01-11T20:19:03.123Z,11.50
2023-01-11T20:21:31.408Z,14.75
2023-01-11T20:23:57.827Z,15.25
2023-01-11T20:26:24.409Z,17.77
2023-01-11T20:28:51.939Z,12.05
2023-01-11T20:31:18.430Z,14.15
2023-01-11T20:33:45.142Z,10.35
2023-01-11T20:36:15.802Z,8.15
2023-01-11T20:38:42.554Z,11.17
2023-01-11T20:41:09.871Z,10.45
2023-01-11T20:43:37.694Z,13.77
2023-01-11T20:46:04.014Z,12.93
2023-01-11T20:48:30.425Z,9.75
2023-01-11T20:50:58.945Z,8.43
2023-01-11T20:53:25.296Z,7.60
2023-01-11T20:55:51.622Z,9.88
2023-01-11T20:58:18.043Z,8.50
2023-01-11T21:00:44.317Z,8.88
2023-01-11T21:03:10.518Z,16.45
2023-01-11T21:05:37.267Z,10.98
2023-01-11T21:08:03.695Z,11.45
2023-01-11T21:10:29.979Z,11.35
2023-01-11T21:15:24.546Z,14.15
2023-01-11T21:17:50.838Z,10.07
2023-01-11T21:20:17.281Z,10.15
2023-01-11T21:22:43.776Z,9.60
2023-01-11T21:25:10.115Z,8.90
2023-01-11T21:27:38.110Z,11.98
2023-01-11T21:30:04.759Z,9.05
2023-01-11T21:32:31.081Z,12.00
2023-01-11T21:34:57.512Z,10.68
2023-01-11T21:37:24.683Z,10.43
2023-01-11T21:39:51.787Z,9.00
2023-01-11T21:42:18.092Z,10.32
2023-01-11T21:44:44.299Z,11.90
2023-01-11T21:47:14.437Z,8.93
2023-01-11T21:49:40.891Z,10.68
2023-01-11T21:52:07.202Z,11.38
2023-01-11T21:54:33.441Z,13.45
2023-01-11T21:56:59.689Z,11.13
2023-01-11T21:59:25.917Z,10.05
2023-01-11T22:01:52.455Z,18.42
2023-01-11T22:04:19.849Z,9.15
2023-01-11T22:06:50.900Z,10.98
2023-01-11T22:09:17.500Z,10.32
2023-01-11T22:11:43.721Z,18.15
2023-01-11T22:14:10.577Z,11.38
2023-01-11T22:16:37.033Z,9.10
2023-01-11T22:19:04.198Z,12.10
2023-01-11T22:21:30.568Z,12.85
2023-01-11T22:23:57.931Z,9.20
2023-01-11T22:26:24.389Z,11.07
2023-01-11T22:29:14.622Z,10.15
2023-01-11T22:31:42.264Z,10.57
2023-01-11T22:34:08.939Z,9.68
2023-01-11T22:36:35.154Z,8.80
2023-01-11T22:39:01.400Z,5.95
2023-01-11T22:41:27.654Z,7.45
2023-01-11T22:43:54.636Z,8.45
2023-01-11T22:46:22.627Z,8.73
2023-01-11T22:48:48.961Z,7.45
2023-01-11T22:51:16.254Z,9.85
2023-01-11T22:53:43.683Z,7.90
2023-01-11T22:56:10.551Z,7.22
2023-01-11T22:58:36.993Z,7.80
2023-01-11T23:01:16.442Z,9.02
2023-01-11T23:03:42.905Z,8.45
2023-01-11T23:06:09.762Z,8.20
2023-01-11T23:08:36.801Z,10.55
2023-01-11T23:11:03.506Z,10.35
2023-01-11T23:13:48.597Z,7.53
2023-01-11T23:16:15.114Z,8.32
2023-01-11T23:18:41.363Z,6.53
2023-01-11T23:21:08.116Z,10.70
2023-01-11T23:23:34.418Z,8.95
2023-01-11T23:26:00.623Z,10.80
2023-01-11T23:28:29.739Z,7.72
2023-01-11T23:30:55.951Z,7.28
2023-01-11T23:33:22.169Z,7.57
2023-01-11T23:35:55.343Z,9.75
2023-01-11T23:38:21.606Z,12.00
2023-01-11T23:41:06.557Z,11.50
2023-01-11T23:43:35.587Z,8.55
2023-01-11T23:46:22.976Z,11.10
2023-01-11T23:48:49.181Z,10.55
2023-01-11T23:51:15.371Z,9.52
2023-01-11T23:53:41.629Z,10.93
2023-01-11T23:56:07.879Z,8.15
2023-01-11T23:58:34.104Z,6.82
